sensor_id;sensor_type;location;lat;lon;timestamp;P1;durP1;ratioP1;P2;durP2;ratioP2
15677;SDS011;7939;50.814;6.368;2023-03-05T00:01:11;5.93;;;2.20;;
15677;SDS011;7939;50.814;6.368;2023-03-05T00:03:39;5.28;;;2.47;;
15677;SDS011;7939;50.814;6.368;2023-03-05T00:06:06;6.47;;;2.53;;
15677;SDS011;7939;50.814;6.368;2023-03-05T00:08:33;6.68;;;2.65;;
15677;SDS011;7939;50.814;6.368;2023-03-05T00:11:01;5.05;;;2.20;;
15677;SDS011;7939;50.814;6.368;2023-03-05T00:13:30;4.13;;;1.88;;
15677;SDS011;7939;50.814;6.368;2023-03-05T00:15:58;4.55;;;1.83;;
15677;SDS011;7939;50.814;6.368;2023-03-05T00:18:27;5.28;;;2.15;;
15677;SDS011;7939;50.814;6.368;2023-03-05T00:20:54;4.30;;;2.13;;
15677;SDS011;7939;50.814;6.368;2023-03-05T00:23:21;4.10;;;1.77;;
15677;SDS011;7939;50.814;6.368;2023-03-05T00:25:47;2.83;;;1.98;;
15677;SDS011;7939;50.814;6.368;2023-03-05T00:28:14;6.43;;;2.97;;
15677;SDS011;7939;50.814;6.368;2023-03-05T00:30:41;4.80;;;1.90;;
15677;SDS011;7939;50.814;6.368;2023-03-05T00:33:09;4.10;;;2.13;;
15677;SDS011;7939;50.814;6.368;2023-03-05T00:35:38;3.22;;;1.60;;
15677;SDS011;7939;50.814;6.368;2023-03-05T00:38:05;3.55;;;1.80;;
15677;SDS011;7939;50.814;6.368;2023-03-05T00:40:34;2.20;;;1.48;;
15677;SDS011;7939;50.814;6.368;2023-03-05T00:43:01;2.38;;;1.50;;
15677;SDS011;7939;50.814;6.368;2023-03-05T00:45:28;5.75;;;1.67;;
15677;SDS011;7939;50.814;6.368;2023-03-05T00:47:54;7.55;;;2.25;;
15677;SDS011;7939;50.814;6.368;2023-03-05T00:50:22;5.80;;;2.10;;
15677;SDS011;7939;50.814;6.368;2023-03-05T00:52:49;2.97;;;1.60;;
15677;SDS011;7939;50.814;6.368;2023-03-05T00:55:16;3.67;;;1.38;;
15677;SDS011;7939;50.814;6.368;2023-03-05T00:57:43;4.57;;;1.60;;
15677;SDS011;7939;50.814;6.368;2023-03-05T01:00:10;4.80;;;1.67;;
15677;SDS011;7939;50.814;6.368;2023-03-05T01:02:38;4.45;;;1.60;;
15677;SDS011;7939;50.814;6.368;2023-03-05T01:05:06;2.40;;;1.67;;
15677;SDS011;7939;50.814;6.368;2023-03-05T01:07:34;5.40;;;1.70;;
15677;SDS011;7939;50.814;6.368;2023-03-05T01:10:01;2.60;;;1.35;;
15677;SDS011;7939;50.814;6.368;2023-03-05T01:12:27;6.05;;;1.42;;
15677;SDS011;7939;50.814;6.368;2023-03-05T01:14:54;3.78;;;1.70;;
15677;SDS011;7939;50.814;6.368;2023-03-05T01:17:21;2.95;;;1.77;;
15677;SDS011;7939;50.814;6.368;2023-03-05T01:19:47;3.45;;;1.75;;
15677;SDS011;7939;50.814;6.368;2023-03-05T01:22:15;3.80;;;1.42;;
15677;SDS011;7939;50.814;6.368;2023-03-05T01:24:43;4.63;;;1.80;;
15677;SDS011;7939;50.814;6.368;2023-03-05T01:27:10;1.92;;;1.30;;
15677;SDS011;7939;50.814;6.368;2023-03-05T01:29:36;2.33;;;1.42;;
15677;SDS011;7939;50.814;6.368;2023-03-05T01:32:03;3.58;;;1.45;;
15677;SDS011;7939;50.814;6.368;2023-03-05T01:34:30;3.50;;;1.70;;
15677;SDS011;7939;50.814;6.368;2023-03-05T01:36:56;3.22;;;1.67;;
15677;SDS011;7939;50.814;6.368;2023-03-05T01:39:23;4.20;;;2.00;;
15677;SDS011;7939;50.814;6.368;2023-03-05T01:41:51;3.30;;;1.60;;
15677;SDS011;7939;50.814;6.368;2023-03-05T01:44:21;3.65;;;1.50;;
15677;SDS011;7939;50.814;6.368;2023-03-05T01:46:49;4.47;;;1.73;;
15677;SDS011;7939;50.814;6.368;2023-03-05T01:49:17;2.20;;;1.17;;
15677;SDS011;7939;50.814;6.368;2023-03-05T01:51:53;4.63;;;1.60;;
15677;SDS011;7939;50.814;6.368;2023-03-05T01:54:26;5.65;;;1.67;;
15677;SDS011;7939;50.814;6.368;2023-03-05T01:56:58;5.03;;;1.58;;
15677;SDS011;7939;50.814;6.368;2023-03-05T01:59:29;3.80;;;1.48;;
15677;SDS011;7939;50.814;6.368;2023-03-05T02:01:56;3.15;;;1.75;;
15677;SDS011;7939;50.814;6.368;2023-03-05T02:04:26;4.07;;;1.90;;
15677;SDS011;7939;50.814;6.368;2023-03-05T02:06:57;3.03;;;1.60;;
15677;SDS011;7939;50.814;6.368;2023-03-05T02:09:25;2.58;;;1.92;;
15677;SDS011;7939;50.814;6.368;2023-03-05T02:11:52;3.03;;;1.70;;
15677;SDS011;7939;50.814;6.368;2023-03-05T02:14:21;3.92;;;1.50;;
15677;SDS011;7939;50.814;6.368;2023-03-05T02:16:48;2.83;;;1.50;;
15677;SDS011;7939;50.814;6.368;2023-03-05T02:19:15;3.47;;;2.17;;
15677;SDS011;7939;50.814;6.368;2023-03-05T02:21:44;3.00;;;1.70;;
15677;SDS011;7939;50.814;6.368;2023-03-05T02:24:14;4.60;;;1.52;;
15677;SDS011;7939;50.814;6.368;2023-03-05T02:26:42;4.63;;;2.17;;
15677;SDS011;7939;50.814;6.368;2023-03-05T02:29:10;2.90;;;1.65;;
15677;SDS011;7939;50.814;6.368;2023-03-05T02:31:40;7.35;;;2.13;;
15677;SDS011;7939;50.814;6.368;2023-03-05T02:34:07;4.13;;;1.77;;
15677;SDS011;7939;50.814;6.368;2023-03-05T02:36:33;5.10;;;2.03;;
15677;SDS011;7939;50.814;6.368;2023-03-05T02:39:02;4.20;;;2.05;;
15677;SDS011;7939;50.814;6.368;2023-03-05T02:41:29;5.32;;;2.13;;
15677;SDS011;7939;50.814;6.368;2023-03-05T02:43:56;5.20;;;1.83;;
15677;SDS011;7939;50.814;6.368;2023-03-05T02:46:23;4.82;;;1.95;;
15677;SDS011;7939;50.814;6.368;2023-03-05T02:48:49;3.90;;;1.70;;
15677;SDS011;7939;50.814;6.368;2023-03-05T02:51:16;4.82;;;2.13;;
15677;SDS011;7939;50.814;6.368;2023-03-05T02:53:43;5.45;;;2.35;;
15677;SDS011;7939;50.814;6.368;2023-03-05T02:56:11;6.70;;;2.38;;
15677;SDS011;7939;50.814;6.368;2023-03-05T02:58:38;7.30;;;2.55;;
15677;SDS011;7939;50.814;6.368;2023-03-05T03:01:04;7.95;;;2.38;;
15677;SDS011;7939;50.814;6.368;2023-03-05T03:03:31;8.70;;;3.50;;
15677;SDS011;7939;50.814;6.368;2023-03-05T03:05:57;6.82;;;2.58;;
15677;SDS011;7939;50.814;6.368;2023-03-05T03:08:24;7.45;;;2.70;;
15677;SDS011;7939;50.814;6.368;2023-03-05T03:10:50;6.70;;;1.98;;
15677;SDS011;7939;50.814;6.368;2023-03-05T03:13:18;5.70;;;2.17;;
15677;SDS011;7939;50.814;6.368;2023-03-05T03:15:45;5.90;;;2.05;;
15677;SDS011;7939;50.814;6.368;2023-03-05T03:18:12;7.00;;;2.53;;
15677;SDS011;7939;50.814;6.368;2023-03-05T03:20:38;7.47;;;2.15;;
15677;SDS011;7939;50.814;6.368;2023-03-05T03:23:05;3.28;;;1.63;;
15677;SDS011;7939;50.814;6.368;2023-03-05T03:25:33;3.00;;;1.95;;
15677;SDS011;7939;50.814;6.368;2023-03-05T03:28:00;6.40;;;2.80;;
15677;SDS011;7939;50.814;6.368;2023-03-05T03:30:28;4.88;;;1.77;;
15677;SDS011;7939;50.814;6.368;2023-03-05T03:32:55;6.03;;;1.92;;
15677;SDS011;7939;50.814;6.368;2023-03-05T03:35:21;6.35;;;2.13;;
15677;SDS011;7939;50.814;6.368;2023-03-05T03:37:48;4.07;;;1.55;;
15677;SDS011;7939;50.814;6.368;2023-03-05T03:40:14;3.97;;;2.05;;
15677;SDS011;7939;50.814;6.368;2023-03-05T03:42:42;7.40;;;1.77;;
15677;SDS011;7939;50.814;6.368;2023-03-05T03:45:09;6.03;;;2.03;;
15677;SDS011;7939;50.814;6.368;2023-03-05T03:47:37;4.35;;;2.08;;
15677;SDS011;7939;50.814;6.368;2023-03-05T03:50:04;4.00;;;1.75;;
15677;SDS011;7939;50.814;6.368;2023-03-05T03:52:31;6.68;;;1.85;;
15677;SDS011;7939;50.814;6.368;2023-03-05T03:54:58;3.30;;;2.08;;
15677;SDS011;7939;50.814;6.368;2023-03-05T03:57:26;6.38;;;2.20;;
15677;SDS011;7939;50.814;6.368;2023-03-05T03:59:54;4.43;;;1.92;;
15677;SDS011;7939;50.814;6.368;2023-03-05T04:02:21;4.90;;;2.22;;
15677;SDS011;7939;50.814;6.368;2023-03-05T04:04:49;7.05;;;2.50;;
15677;SDS011;7939;50.814;6.368;2023-03-05T04:07:16;7.30;;;2.75;;
15677;SDS011;7939;50.814;6.368;2023-03-05T04:09:43;3.95;;;1.90;;
15677;SDS011;7939;50.814;6.368;2023-03-05T04:12:10;4.55;;;2.25;;
15677;SDS011;7939;50.814;6.368;2023-03-05T04:14:42;5.70;;;3.15;;
15677;SDS011;7939;50.814;6.368;2023-03-05T04:17:09;5.50;;;2.28;;
15677;SDS011;7939;50.814;6.368;2023-03-05T04:19:36;4.13;;;2.42;;
15677;SDS011;7939;50.814;6.368;2023-03-05T04:22:04;8.48;;;2.35;;
15677;SDS011;7939;50.814;6.368;2023-03-05T04:24:30;8.43;;;2.75;;
15677;SDS011;7939;50.814;6.368;2023-03-05T04:26:57;5.43;;;2.50;;
15677;SDS011;7939;50.814;6.368;2023-03-05T04:29:23;4.95;;;2.13;;
15677;SDS011;7939;50.814;6.368;2023-03-05T04:31:51;7.38;;;2.97;;
15677;SDS011;7939;50.814;6.368;2023-03-05T04:34:17;4.47;;;2.30;;
15677;SDS011;7939;50.814;6.368;2023-03-05T04:36:44;4.18;;;2.88;;
15677;SDS011;7939;50.814;6.368;2023-03-05T04:39:12;5.28;;;2.50;;
15677;SDS011;7939;50.814;6.368;2023-03-05T04:41:39;5.90;;;2.80;;
15677;SDS011;7939;50.814;6.368;2023-03-05T04:44:06;4.47;;;2.33;;
15677;SDS011;7939;50.814;6.368;2023-03-05T04:46:32;6.10;;;2.40;;
15677;SDS011;7939;50.814;6.368;2023-03-05T04:48:59;7.00;;;2.35;;
15677;SDS011;7939;50.814;6.368;2023-03-05T04:51:25;6.47;;;2.45;;
15677;SDS011;7939;50.814;6.368;2023-03-05T04:53:52;8.57;;;2.15;;
15677;SDS011;7939;50.814;6.368;2023-03-05T04:56:20;3.83;;;2.30;;
15677;SDS011;7939;50.814;6.368;2023-03-05T04:58:46;4.82;;;2.20;;
15677;SDS011;7939;50.814;6.368;2023-03-05T05:01:13;6.32;;;2.70;;
15677;SDS011;7939;50.814;6.368;2023-03-05T05:03:40;6.28;;;2.58;;
15677;SDS011;7939;50.814;6.368;2023-03-05T05:06:06;5.15;;;2.92;;
15677;SDS011;7939;50.814;6.368;2023-03-05T05:08:33;3.75;;;3.00;;
15677;SDS011;7939;50.814;6.368;2023-03-05T05:11:01;5.90;;;2.72;;
15677;SDS011;7939;50.814;6.368;2023-03-05T05:13:31;5.80;;;2.40;;
15677;SDS011;7939;50.814;6.368;2023-03-05T05:15:58;7.55;;;3.08;;
15677;SDS011;7939;50.814;6.368;2023-03-05T05:18:25;5.13;;;3.03;;
15677;SDS011;7939;50.814;6.368;2023-03-05T05:20:52;7.18;;;3.30;;
15677;SDS011;7939;50.814;6.368;2023-03-05T05:23:19;7.70;;;3.67;;
15677;SDS011;7939;50.814;6.368;2023-03-05T05:25:45;8.43;;;3.50;;
15677;SDS011;7939;50.814;6.368;2023-03-05T05:28:20;11.05;;;3.30;;
15677;SDS011;7939;50.814;6.368;2023-03-05T05:30:48;6.93;;;3.13;;
15677;SDS011;7939;50.814;6.368;2023-03-05T05:33:15;7.07;;;3.05;;
15677;SDS011;7939;50.814;6.368;2023-03-05T05:35:42;5.97;;;2.95;;
15677;SDS011;7939;50.814;6.368;2023-03-05T05:38:09;9.48;;;3.38;;
15677;SDS011;7939;50.814;6.368;2023-03-05T05:40:35;6.47;;;3.20;;
15677;SDS011;7939;50.814;6.368;2023-03-05T05:43:02;6.18;;;3.92;;
15677;SDS011;7939;50.814;6.368;2023-03-05T05:45:29;4.47;;;3.13;;
15677;SDS011;7939;50.814;6.368;2023-03-05T05:47:57;8.98;;;3.75;;
15677;SDS011;7939;50.814;6.368;2023-03-05T05:50:24;5.82;;;3.13;;
15677;SDS011;7939;50.814;6.368;2023-03-05T05:52:51;4.63;;;2.95;;
15677;SDS011;7939;50.814;6.368;2023-03-05T05:55:18;5.22;;;3.05;;
15677;SDS011;7939;50.814;6.368;2023-03-05T05:57:44;5.72;;;3.72;;
15677;SDS011;7939;50.814;6.368;2023-03-05T06:00:12;7.65;;;4.03;;
15677;SDS011;7939;50.814;6.368;2023-03-05T06:02:40;11.38;;;4.97;;
15677;SDS011;7939;50.814;6.368;2023-03-05T06:05:10;11.95;;;5.03;;
15677;SDS011;7939;50.814;6.368;2023-03-05T06:07:38;9.70;;;5.03;;
15677;SDS011;7939;50.814;6.368;2023-03-05T06:10:06;9.27;;;5.32;;
15677;SDS011;7939;50.814;6.368;2023-03-05T06:12:34;8.90;;;4.20;;
15677;SDS011;7939;50.814;6.368;2023-03-05T06:15:01;10.88;;;3.45;;
15677;SDS011;7939;50.814;6.368;2023-03-05T06:17:27;7.57;;;3.63;;
15677;SDS011;7939;50.814;6.368;2023-03-05T06:19:54;5.35;;;3.58;;
15677;SDS011;7939;50.814;6.368;2023-03-05T06:22:22;5.03;;;3.20;;
15677;SDS011;7939;50.814;6.368;2023-03-05T06:24:48;6.97;;;3.58;;
15677;SDS011;7939;50.814;6.368;2023-03-05T06:27:15;5.97;;;2.97;;
15677;SDS011;7939;50.814;6.368;2023-03-05T06:29:42;7.05;;;3.20;;
15677;SDS011;7939;50.814;6.368;2023-03-05T06:32:08;6.38;;;3.25;;
15677;SDS011;7939;50.814;6.368;2023-03-05T06:34:35;5.60;;;3.53;;
15677;SDS011;7939;50.814;6.368;2023-03-05T06:37:01;6.50;;;2.83;;
15677;SDS011;7939;50.814;6.368;2023-03-05T06:39:29;5.43;;;3.40;;
15677;SDS011;7939;50.814;6.368;2023-03-05T06:41:56;11.80;;;4.07;;
15677;SDS011;7939;50.814;6.368;2023-03-05T06:44:23;7.13;;;3.38;;
15677;SDS011;7939;50.814;6.368;2023-03-05T06:46:49;7.93;;;3.95;;
15677;SDS011;7939;50.814;6.368;2023-03-05T06:49:16;4.70;;;3.25;;
15677;SDS011;7939;50.814;6.368;2023-03-05T06:51:42;7.25;;;3.72;;
15677;SDS011;7939;50.814;6.368;2023-03-05T06:54:09;6.50;;;3.58;;
15677;SDS011;7939;50.814;6.368;2023-03-05T06:56:39;7.00;;;3.70;;
15677;SDS011;7939;50.814;6.368;2023-03-05T06:59:07;6.78;;;3.50;;
15677;SDS011;7939;50.814;6.368;2023-03-05T07:01:34;4.55;;;2.92;;
15677;SDS011;7939;50.814;6.368;2023-03-05T07:04:00;4.60;;;3.15;;
15677;SDS011;7939;50.814;6.368;2023-03-05T07:06:28;7.05;;;3.03;;
15677;SDS011;7939;50.814;6.368;2023-03-05T07:08:58;8.55;;;3.67;;
15677;SDS011;7939;50.814;6.368;2023-03-05T07:11:26;5.93;;;3.33;;
15677;SDS011;7939;50.814;6.368;2023-03-05T07:13:54;4.50;;;2.90;;
15677;SDS011;7939;50.814;6.368;2023-03-05T07:16:22;5.70;;;3.33;;
15677;SDS011;7939;50.814;6.368;2023-03-05T07:18:50;5.63;;;3.55;;
15677;SDS011;7939;50.814;6.368;2023-03-05T07:21:18;6.82;;;3.95;;
15677;SDS011;7939;50.814;6.368;2023-03-05T07:23:46;7.38;;;3.78;;
15677;SDS011;7939;50.814;6.368;2023-03-05T07:26:14;9.00;;;3.60;;
15677;SDS011;7939;50.814;6.368;2023-03-05T07:28:40;4.97;;;3.28;;
15677;SDS011;7939;50.814;6.368;2023-03-05T07:31:10;5.20;;;3.13;;
15677;SDS011;7939;50.814;6.368;2023-03-05T07:33:38;5.78;;;3.05;;
15677;SDS011;7939;50.814;6.368;2023-03-05T07:36:06;3.38;;;2.70;;
15677;SDS011;7939;50.814;6.368;2023-03-05T07:38:34;5.47;;;3.10;;
15677;SDS011;7939;50.814;6.368;2023-03-05T07:41:01;8.57;;;3.30;;
15677;SDS011;7939;50.814;6.368;2023-03-05T07:43:28;7.78;;;3.55;;
15677;SDS011;7939;50.814;6.368;2023-03-05T07:45:55;7.72;;;3.03;;
15677;SDS011;7939;50.814;6.368;2023-03-05T07:48:23;6.07;;;3.38;;
15677;SDS011;7939;50.814;6.368;2023-03-05T07:50:52;6.32;;;3.28;;
15677;SDS011;7939;50.814;6.368;2023-03-05T07:53:25;5.95;;;3.90;;
15677;SDS011;7939;50.814;6.368;2023-03-05T07:55:52;4.55;;;3.53;;
15677;SDS011;7939;50.814;6.368;2023-03-05T07:58:18;4.32;;;3.20;;
15677;SDS011;7939;50.814;6.368;2023-03-05T08:00:45;5.68;;;3.78;;
15677;SDS011;7939;50.814;6.368;2023-03-05T08:03:11;8.52;;;3.83;;
15677;SDS011;7939;50.814;6.368;2023-03-05T08:05:40;5.85;;;4.20;;
15677;SDS011;7939;50.814;6.368;2023-03-05T08:08:07;6.25;;;3.53;;
15677;SDS011;7939;50.814;6.368;2023-03-05T08:10:35;6.13;;;3.60;;
15677;SDS011;7939;50.814;6.368;2023-03-05T08:13:02;10.43;;;4.43;;
15677;SDS011;7939;50.814;6.368;2023-03-05T08:15:29;5.05;;;3.88;;
15677;SDS011;7939;50.814;6.368;2023-03-05T08:17:56;8.48;;;3.85;;
15677;SDS011;7939;50.814;6.368;2023-03-05T08:20:23;7.10;;;3.83;;
15677;SDS011;7939;50.814;6.368;2023-03-05T08:22:51;4.78;;;3.40;;
15677;SDS011;7939;50.814;6.368;2023-03-05T08:25:18;5.32;;;3.63;;
15677;SDS011;7939;50.814;6.368;2023-03-05T08:27:46;7.60;;;3.67;;
15677;SDS011;7939;50.814;6.368;2023-03-05T08:30:13;5.97;;;3.70;;
15677;SDS011;7939;50.814;6.368;2023-03-05T08:32:42;6.45;;;3.33;;
15677;SDS011;7939;50.814;6.368;2023-03-05T08:35:09;5.38;;;3.45;;
15677;SDS011;7939;50.814;6.368;2023-03-05T08:37:35;5.30;;;3.33;;
15677;SDS011;7939;50.814;6.368;2023-03-05T08:40:04;5.18;;;3.20;;
15677;SDS011;7939;50.814;6.368;2023-03-05T08:42:31;6.78;;;3.08;;
15677;SDS011;7939;50.814;6.368;2023-03-05T08:44:58;6.35;;;3.25;;
15677;SDS011;7939;50.814;6.368;2023-03-05T08:47:24;5.68;;;3.20;;
15677;SDS011;7939;50.814;6.368;2023-03-05T08:49:52;5.40;;;2.97;;
15677;SDS011;7939;50.814;6.368;2023-03-05T08:52:19;4.72;;;3.15;;
15677;SDS011;7939;50.814;6.368;2023-03-05T08:54:46;6.45;;;3.17;;
15677;SDS011;7939;50.814;6.368;2023-03-05T08:57:14;6.60;;;2.92;;
15677;SDS011;7939;50.814;6.368;2023-03-05T08:59:41;6.88;;;2.75;;
15677;SDS011;7939;50.814;6.368;2023-03-05T09:02:08;7.03;;;2.78;;
15677;SDS011;7939;50.814;6.368;2023-03-05T09:04:36;7.82;;;3.05;;
15677;SDS011;7939;50.814;6.368;2023-03-05T09:07:03;5.88;;;2.92;;
15677;SDS011;7939;50.814;6.368;2023-03-05T09:09:30;6.22;;;3.05;;
15677;SDS011;7939;50.814;6.368;2023-03-05T09:11:57;5.32;;;2.97;;
15677;SDS011;7939;50.814;6.368;2023-03-05T09:14:25;6.75;;;3.17;;
15677;SDS011;7939;50.814;6.368;2023-03-05T09:16:52;5.78;;;3.28;;
15677;SDS011;7939;50.814;6.368;2023-03-05T09:19:19;4.35;;;2.83;;
15677;SDS011;7939;50.814;6.368;2023-03-05T09:21:45;6.78;;;3.80;;
15677;SDS011;7939;50.814;6.368;2023-03-05T09:24:12;6.75;;;3.30;;
15677;SDS011;7939;50.814;6.368;2023-03-05T09:26:39;6.55;;;3.65;;
15677;SDS011;7939;50.814;6.368;2023-03-05T09:29:06;8.07;;;3.97;;
15677;SDS011;7939;50.814;6.368;2023-03-05T09:31:34;5.15;;;3.28;;
15677;SDS011;7939;50.814;6.368;2023-03-05T09:34:01;6.80;;;3.97;;
15677;SDS011;7939;50.814;6.368;2023-03-05T09:36:29;7.05;;;4.13;;
15677;SDS011;7939;50.814;6.368;2023-03-05T09:38:56;7.40;;;4.00;;
15677;SDS011;7939;50.814;6.368;2023-03-05T09:41:25;6.30;;;3.53;;
15677;SDS011;7939;50.814;6.368;2023-03-05T09:44:01;7.68;;;3.97;;
15677;SDS011;7939;50.814;6.368;2023-03-05T09:46:38;8.25;;;4.45;;
15677;SDS011;7939;50.814;6.368;2023-03-05T09:49:15;6.50;;;4.07;;
15677;SDS011;7939;50.814;6.368;2023-03-05T09:51:45;7.82;;;4.30;;
15677;SDS011;7939;50.814;6.368;2023-03-05T09:54:16;9.68;;;4.75;;
15677;SDS011;7939;50.814;6.368;2023-03-05T09:56:46;10.77;;;5.70;;
15677;SDS011;7939;50.814;6.368;2023-03-05T09:59:17;11.38;;;5.63;;
15677;SDS011;7939;50.814;6.368;2023-03-05T10:01:50;8.90;;;6.05;;
15677;SDS011;7939;50.814;6.368;2023-03-05T10:04:20;8.38;;;5.93;;
15677;SDS011;7939;50.814;6.368;2023-03-05T10:06:51;10.70;;;5.60;;
15677;SDS011;7939;50.814;6.368;2023-03-05T10:09:26;8.93;;;6.30;;
15677;SDS011;7939;50.814;6.368;2023-03-05T10:12:06;9.07;;;6.45;;
15677;SDS011;7939;50.814;6.368;2023-03-05T10:14:42;9.70;;;6.28;;
15677;SDS011;7939;50.814;6.368;2023-03-05T10:17:21;11.80;;;7.53;;
15677;SDS011;7939;50.814;6.368;2023-03-05T10:20:13;13.05;;;8.55;;
15677;SDS011;7939;50.814;6.368;2023-03-05T10:22:53;12.15;;;8.23;;
15677;SDS011;7939;50.814;6.368;2023-03-05T10:25:31;11.93;;;8.05;;
15677;SDS011;7939;50.814;6.368;2023-03-05T10:28:16;8.93;;;7.07;;
15677;SDS011;7939;50.814;6.368;2023-03-05T10:30:52;8.95;;;7.45;;
15677;SDS011;7939;50.814;6.368;2023-03-05T10:33:38;12.68;;;7.88;;
15677;SDS011;7939;50.814;6.368;2023-03-05T10:36:20;12.10;;;8.63;;
15677;SDS011;7939;50.814;6.368;2023-03-05T10:39:04;12.52;;;8.45;;
15677;SDS011;7939;50.814;6.368;2023-03-05T10:41:48;11.52;;;8.98;;
15677;SDS011;7939;50.814;6.368;2023-03-05T10:44:29;13.85;;;9.18;;
15677;SDS011;7939;50.814;6.368;2023-03-05T10:47:01;12.80;;;9.85;;
15677;SDS011;7939;50.814;6.368;2023-03-05T10:49:35;14.85;;;9.63;;
15677;SDS011;7939;50.814;6.368;2023-03-05T10:52:10;15.73;;;10.30;;
15677;SDS011;7939;50.814;6.368;2023-03-05T10:54:40;12.95;;;10.38;;
15677;SDS011;7939;50.814;6.368;2023-03-05T10:57:12;12.18;;;10.20;;
15677;SDS011;7939;50.814;6.368;2023-03-05T10:59:43;15.93;;;10.27;;
15677;SDS011;7939;50.814;6.368;2023-03-05T11:02:14;15.27;;;10.48;;
15677;SDS011;7939;50.814;6.368;2023-03-05T11:04:43;11.70;;;9.93;;
15677;SDS011;7939;50.814;6.368;2023-03-05T11:07:31;13.75;;;10.13;;
15677;SDS011;7939;50.814;6.368;2023-03-05T11:10:05;14.13;;;9.43;;
15677;SDS011;7939;50.814;6.368;2023-03-05T11:12:39;13.52;;;10.00;;
15677;SDS011;7939;50.814;6.368;2023-03-05T11:15:17;14.05;;;9.35;;
15677;SDS011;7939;50.814;6.368;2023-03-05T11:18:02;15.68;;;9.88;;
15677;SDS011;7939;50.814;6.368;2023-03-05T11:20:43;15.38;;;9.95;;
15677;SDS011;7939;50.814;6.368;2023-03-05T11:23:11;13.98;;;9.68;;
15677;SDS011;7939;50.814;6.368;2023-03-05T11:25:53;12.25;;;8.88;;
15677;SDS011;7939;50.814;6.368;2023-03-05T11:28:22;10.80;;;8.23;;
15677;SDS011;7939;50.814;6.368;2023-03-05T11:30:54;10.75;;;8.23;;
15677;SDS011;7939;50.814;6.368;2023-03-05T11:33:23;9.82;;;8.02;;
15677;SDS011;7939;50.814;6.368;2023-03-05T11:35:52;10.27;;;7.35;;
15677;SDS011;7939;50.814;6.368;2023-03-05T11:38:43;8.27;;;6.38;;
15677;SDS011;7939;50.814;6.368;2023-03-05T11:41:11;8.27;;;6.82;;
15677;SDS011;7939;50.814;6.368;2023-03-05T11:43:38;8.60;;;6.25;;
15677;SDS011;7939;50.814;6.368;2023-03-05T11:46:08;8.73;;;6.32;;
15677;SDS011;7939;50.814;6.368;2023-03-05T11:48:38;8.93;;;6.28;;
15677;SDS011;7939;50.814;6.368;2023-03-05T11:51:15;6.70;;;6.00;;
15677;SDS011;7939;50.814;6.368;2023-03-05T11:53:46;7.97;;;5.85;;
15677;SDS011;7939;50.814;6.368;2023-03-05T11:56:17;5.43;;;4.75;;
15677;SDS011;7939;50.814;6.368;2023-03-05T11:58:47;5.90;;;5.07;;
15677;SDS011;7939;50.814;6.368;2023-03-05T12:01:18;7.57;;;4.80;;
15677;SDS011;7939;50.814;6.368;2023-03-05T12:03:46;7.43;;;5.65;;
15677;SDS011;7939;50.814;6.368;2023-03-05T12:06:17;4.35;;;3.88;;
15677;SDS011;7939;50.814;6.368;2023-03-05T12:08:53;5.63;;;4.90;;
15677;SDS011;7939;50.814;6.368;2023-03-05T12:11:22;5.72;;;4.75;;
15677;SDS011;7939;50.814;6.368;2023-03-05T12:13:51;5.00;;;4.57;;
15677;SDS011;7939;50.814;6.368;2023-03-05T12:16:23;9.02;;;5.05;;
15677;SDS011;7939;50.814;6.368;2023-03-05T12:18:56;6.00;;;4.63;;
15677;SDS011;7939;50.814;6.368;2023-03-05T12:21:37;7.80;;;5.60;;
15677;SDS011;7939;50.814;6.368;2023-03-05T12:27:05;9.07;;;6.13;;
15677;SDS011;7939;50.814;6.368;2023-03-05T12:29:40;5.95;;;4.55;;
15677;SDS011;7939;50.814;6.368;2023-03-05T12:35:26;9.32;;;5.20;;
15677;SDS011;7939;50.814;6.368;2023-03-05T12:38:02;5.40;;;4.90;;
15677;SDS011;7939;50.814;6.368;2023-03-05T12:44:01;6.43;;;4.38;;
15677;SDS011;7939;50.814;6.368;2023-03-05T12:46:35;5.75;;;4.50;;
15677;SDS011;7939;50.814;6.368;2023-03-05T12:51:54;5.00;;;4.43;;
15677;SDS011;7939;50.814;6.368;2023-03-05T12:54:29;5.05;;;4.53;;
15677;SDS011;7939;50.814;6.368;2023-03-05T12:57:00;6.18;;;4.68;;
15677;SDS011;7939;50.814;6.368;2023-03-05T12:59:37;6.03;;;4.35;;
15677;SDS011;7939;50.814;6.368;2023-03-05T13:02:18;6.70;;;4.25;;
15677;SDS011;7939;50.814;6.368;2023-03-05T13:04:48;7.43;;;4.30;;
15677;SDS011;7939;50.814;6.368;2023-03-05T13:07:17;7.10;;;4.93;;
15677;SDS011;7939;50.814;6.368;2023-03-05T13:09:51;6.65;;;4.70;;
15677;SDS011;7939;50.814;6.368;2023-03-05T13:12:19;5.70;;;4.63;;
15677;SDS011;7939;50.814;6.368;2023-03-05T13:14:47;6.53;;;4.78;;
15677;SDS011;7939;50.814;6.368;2023-03-05T13:20:24;5.03;;;4.22;;
15677;SDS011;7939;50.814;6.368;2023-03-05T13:25:55;4.82;;;4.43;;
15677;SDS011;7939;50.814;6.368;2023-03-05T13:28:27;7.28;;;4.38;;
15677;SDS011;7939;50.814;6.368;2023-03-05T13:30:55;5.78;;;4.20;;
15677;SDS011;7939;50.814;6.368;2023-03-05T13:33:24;4.80;;;4.30;;
15677;SDS011;7939;50.814;6.368;2023-03-05T13:35:54;5.93;;;5.07;;
15677;SDS011;7939;50.814;6.368;2023-03-05T13:38:22;7.60;;;4.88;;
15677;SDS011;7939;50.814;6.368;2023-03-05T13:43:52;7.43;;;4.95;;
15677;SDS011;7939;50.814;6.368;2023-03-05T13:46:27;5.22;;;4.72;;
15677;SDS011;7939;50.814;6.368;2023-03-05T13:48:57;8.50;;;5.85;;
15677;SDS011;7939;50.814;6.368;2023-03-05T13:51:41;5.13;;;4.30;;
15677;SDS011;7939;50.814;6.368;2023-03-05T13:54:10;10.48;;;5.63;;
15677;SDS011;7939;50.814;6.368;2023-03-05T13:56:48;7.18;;;5.25;;
15677;SDS011;7939;50.814;6.368;2023-03-05T13:59:16;6.90;;;5.60;;
15677;SDS011;7939;50.814;6.368;2023-03-05T14:01:43;7.93;;;5.47;;
15677;SDS011;7939;50.814;6.368;2023-03-05T14:04:17;7.80;;;5.45;;
15677;SDS011;7939;50.814;6.368;2023-03-05T14:06:47;7.30;;;4.97;;
15677;SDS011;7939;50.814;6.368;2023-03-05T14:09:18;9.45;;;5.93;;
15677;SDS011;7939;50.814;6.368;2023-03-05T14:11:52;6.75;;;5.68;;
15677;SDS011;7939;50.814;6.368;2023-03-05T14:14:21;6.10;;;5.15;;
15677;SDS011;7939;50.814;6.368;2023-03-05T14:16:49;6.18;;;5.57;;
15677;SDS011;7939;50.814;6.368;2023-03-05T14:19:33;8.95;;;5.82;;
15677;SDS011;7939;50.814;6.368;2023-03-05T14:22:01;8.23;;;6.47;;
15677;SDS011;7939;50.814;6.368;2023-03-05T14:24:29;7.72;;;5.90;;
15677;SDS011;7939;50.814;6.368;2023-03-05T14:26:58;7.57;;;5.60;;
15677;SDS011;7939;50.814;6.368;2023-03-05T14:29:27;6.28;;;5.68;;
15677;SDS011;7939;50.814;6.368;2023-03-05T14:31:55;6.35;;;5.03;;
15677;SDS011;7939;50.814;6.368;2023-03-05T14:34:26;8.77;;;6.10;;
15677;SDS011;7939;50.814;6.368;2023-03-05T14:36:56;10.05;;;5.85;;
15677;SDS011;7939;50.814;6.368;2023-03-05T14:39:26;9.80;;;5.95;;
15677;SDS011;7939;50.814;6.368;2023-03-05T14:41:55;9.65;;;6.13;;
15677;SDS011;7939;50.814;6.368;2023-03-05T14:44:38;9.32;;;6.47;;
15677;SDS011;7939;50.814;6.368;2023-03-05T14:47:05;8.52;;;6.07;;
15677;SDS011;7939;50.814;6.368;2023-03-05T14:49:32;9.07;;;5.38;;
15677;SDS011;7939;50.814;6.368;2023-03-05T14:51:58;7.35;;;5.70;;
15677;SDS011;7939;50.814;6.368;2023-03-05T14:54:25;8.73;;;5.40;;
15677;SDS011;7939;50.814;6.368;2023-03-05T14:56:51;7.40;;;5.75;;
15677;SDS011;7939;50.814;6.368;2023-03-05T14:59:18;6.88;;;5.35;;
15677;SDS011;7939;50.814;6.368;2023-03-05T15:01:47;6.47;;;5.68;;
15677;SDS011;7939;50.814;6.368;2023-03-05T15:04:15;9.05;;;7.07;;
15677;SDS011;7939;50.814;6.368;2023-03-05T15:06:43;8.75;;;7.43;;
15677;SDS011;7939;50.814;6.368;2023-03-05T15:09:12;8.13;;;5.57;;
15677;SDS011;7939;50.814;6.368;2023-03-05T15:11:41;11.32;;;7.60;;
15677;SDS011;7939;50.814;6.368;2023-03-05T15:14:09;10.35;;;7.40;;
15677;SDS011;7939;50.814;6.368;2023-03-05T15:16:36;7.90;;;6.93;;
15677;SDS011;7939;50.814;6.368;2023-03-05T15:19:07;14.32;;;9.02;;
15677;SDS011;7939;50.814;6.368;2023-03-05T15:21:36;10.82;;;7.80;;
15677;SDS011;7939;50.814;6.368;2023-03-05T15:24:03;10.55;;;7.85;;
15677;SDS011;7939;50.814;6.368;2023-03-05T15:26:29;12.40;;;8.68;;
15677;SDS011;7939;50.814;6.368;2023-03-05T15:28:56;10.80;;;8.68;;
15677;SDS011;7939;50.814;6.368;2023-03-05T15:31:22;15.55;;;10.55;;
15677;SDS011;7939;50.814;6.368;2023-03-05T15:33:49;11.45;;;8.25;;